createdAt,value
2024-02-29T00:01:51.854Z,1.40
2024-02-29T00:04:19.625Z,0.77
2024-02-29T00:06:47.175Z,1.30
2024-02-29T00:09:14.892Z,0.70
2024-02-29T00:11:42.577Z,0.60
2024-02-29T00:14:10.288Z,0.80
2024-02-29T00:16:37.978Z,0.35
2024-02-29T00:19:05.662Z,0.63
2024-02-29T00:21:34.804Z,0.95
2024-02-29T00:24:02.407Z,0.75
2024-02-29T00:26:29.961Z,0.93
2024-02-29T00:28:57.510Z,0.50
2024-02-29T00:31:27.623Z,0.63
2024-02-29T00:33:55.603Z,0.63
2024-02-29T00:36:23.104Z,0.98
2024-02-29T00:38:58.785Z,0.47
2024-02-29T00:41:33.159Z,0.60
2024-02-29T00:44:00.701Z,0.50
2024-02-29T00:46:28.646Z,0.65
2024-02-29T00:48:56.257Z,0.60
2024-02-29T00:51:23.848Z,0.75
2024-02-29T00:53:51.422Z,0.75
2024-02-29T00:56:19.006Z,0.30
2024-02-29T00:58:46.747Z,0.43
2024-02-29T01:01:14.440Z,0.82
2024-02-29T01:03:42.252Z,1.13
2024-02-29T01:06:10.837Z,0.98
2024-02-29T01:08:38.429Z,0.68
2024-02-29T01:11:06.207Z,0.52
2024-02-29T01:13:34.045Z,0.85
2024-02-29T01:16:01.738Z,1.20
2024-02-29T01:18:29.409Z,0.57
2024-02-29T01:20:57.007Z,0.63
2024-02-29T01:23:24.585Z,1.08
2024-02-29T01:25:52.339Z,0.73
2024-02-29T01:28:19.906Z,0.75
2024-02-29T01:30:47.432Z,1.00
2024-02-29T01:33:15.320Z,1.00
2024-02-29T01:35:43.460Z,0.43
2024-02-29T01:38:11.088Z,0.77
2024-02-29T01:40:38.844Z,0.60
2024-02-29T01:43:06.852Z,0.55
2024-02-29T01:45:34.619Z,0.50
2024-02-29T01:48:02.315Z,0.60
2024-02-29T01:50:31.969Z,0.63
2024-02-29T01:52:59.596Z,0.50
2024-02-29T01:55:45.648Z,0.40
2024-02-29T01:58:14.239Z,0.55
2024-02-29T02:00:43.258Z,0.40
2024-02-29T02:03:11.330Z,0.17
2024-02-29T02:05:38.935Z,1.70
2024-02-29T02:08:07.929Z,0.88
2024-02-29T02:10:35.597Z,1.15
2024-02-29T02:13:04.472Z,0.30
2024-02-29T02:15:32.295Z,0.70
2024-02-29T02:17:59.994Z,0.10
2024-02-29T02:20:27.718Z,0.50
2024-02-29T02:22:56.327Z,0.43
2024-02-29T02:25:23.949Z,0.52
2024-02-29T02:27:51.585Z,0.95
2024-02-29T02:30:19.343Z,0.63
2024-02-29T02:32:47.019Z,0.25
2024-02-29T02:35:14.751Z,0.30
2024-02-29T02:37:42.285Z,0.40
2024-02-29T02:40:12.077Z,0.57
2024-02-29T02:42:39.763Z,0.45
2024-02-29T02:45:08.033Z,0.68
2024-02-29T02:47:35.775Z,0.85
2024-02-29T02:50:03.504Z,0.40
2024-02-29T02:52:31.292Z,1.08
2024-02-29T02:54:59.077Z,0.50
2024-02-29T02:57:26.740Z,0.40
2024-02-29T02:59:54.434Z,0.50
2024-02-29T03:02:22.225Z,0.55
2024-02-29T03:04:50.007Z,0.20
2024-02-29T03:07:17.783Z,0.47
2024-02-29T03:09:47.499Z,0.38
2024-02-29T03:12:17.084Z,0.45
2024-02-29T03:14:45.199Z,0.30
2024-02-29T03:17:12.911Z,0.40
2024-02-29T03:19:40.690Z,0.30
2024-02-29T03:22:08.497Z,0.95
2024-02-29T03:24:44.730Z,0.20
2024-02-29T03:27:14.122Z,0.60
2024-02-29T03:29:43.267Z,0.43
2024-02-29T03:32:11.990Z,0.55
2024-02-29T03:34:40.787Z,0.40
2024-02-29T03:37:09.677Z,0.25
2024-02-29T03:39:37.441Z,0.28
2024-02-29T03:42:05.110Z,0.30
2024-02-29T03:44:32.743Z,0.40
2024-02-29T03:47:00.486Z,0.40
2024-02-29T03:49:28.074Z,0.40
2024-02-29T03:51:55.765Z,0.30
2024-02-29T03:54:23.508Z,0.30
2024-02-29T03:56:51.215Z,0.40
2024-02-29T03:59:19.368Z,0.50
2024-02-29T04:01:51.192Z,1.33
2024-02-29T04:04:22.331Z,0.45
2024-02-29T04:06:50.169Z,0.13
2024-02-29T04:09:17.828Z,0.40
2024-02-29T04:11:45.609Z,0.22
2024-02-29T04:14:13.301Z,0.57
2024-02-29T04:16:41.090Z,0.28
2024-02-29T04:19:08.993Z,0.50
2024-02-29T04:21:36.715Z,0.32
2024-02-29T04:24:05.071Z,0.40
2024-02-29T04:26:32.638Z,0.60
2024-02-29T04:29:00.460Z,0.35
2024-02-29T04:31:28.129Z,0.47
2024-02-29T04:33:55.850Z,0.30
2024-02-29T04:36:23.687Z,0.22
2024-02-29T04:38:51.430Z,0.40
2024-02-29T04:41:19.192Z,0.38
2024-02-29T04:43:46.875Z,0.20
2024-02-29T04:46:14.624Z,0.22
2024-02-29T04:48:42.252Z,0.30
2024-02-29T04:51:09.824Z,0.25
2024-02-29T04:53:37.445Z,0.70
2024-02-29T04:56:07.159Z,0.50
2024-02-29T04:58:34.772Z,0.57
2024-02-29T05:01:03.458Z,0.30
2024-02-29T05:03:31.188Z,0.30
2024-02-29T05:05:59.049Z,0.80
2024-02-29T05:08:26.972Z,0.47
2024-02-29T05:10:54.714Z,0.98
2024-02-29T05:13:22.472Z,0.28
2024-02-29T05:15:50.137Z,0.60
2024-02-29T05:18:17.858Z,0.50
2024-02-29T05:20:45.511Z,0.20
2024-02-29T05:23:13.300Z,0.22
2024-02-29T05:25:41.381Z,0.68
2024-02-29T05:28:09.231Z,0.43
2024-02-29T05:30:37.140Z,0.70
2024-02-29T05:33:05.524Z,0.32
2024-02-29T05:35:36.734Z,0.40
2024-02-29T05:38:04.548Z,0.13
2024-02-29T05:40:32.269Z,0.35
2024-02-29T05:43:00.011Z,0.40
2024-02-29T05:45:27.855Z,0.28
2024-02-29T05:47:55.584Z,0.68
2024-02-29T05:50:23.253Z,0.40
2024-02-29T05:52:50.802Z,0.35
2024-02-29T05:55:18.597Z,0.30
2024-02-29T05:57:46.223Z,0.30
2024-02-29T06:00:14.507Z,0.20
2024-02-29T06:02:42.285Z,0.32
2024-02-29T06:05:10.303Z,0.38
2024-02-29T06:07:40.813Z,0.45
2024-02-29T06:10:11.882Z,0.28
2024-02-29T06:12:39.898Z,0.68
2024-02-29T06:15:11.162Z,0.47
2024-02-29T06:17:40.443Z,0.50
2024-02-29T06:20:13.575Z,0.73
2024-02-29T06:22:41.648Z,0.70
2024-02-29T06:25:11.677Z,0.70
2024-02-29T06:27:40.685Z,0.70
2024-02-29T06:32:37.672Z,1.10
2024-02-29T06:35:05.579Z,0.50
2024-02-29T06:37:33.169Z,0.47
2024-02-29T06:40:01.016Z,0.30
2024-02-29T06:42:28.652Z,0.85
2024-02-29T06:44:56.252Z,0.75
2024-02-29T06:47:24.020Z,0.25
2024-02-29T06:49:51.553Z,0.30
2024-02-29T06:52:19.359Z,0.40
2024-02-29T06:57:16.625Z,0.30
2024-02-29T06:59:44.577Z,0.20
2024-02-29T07:02:12.242Z,0.40
2024-02-29T07:04:39.871Z,0.30
2024-02-29T07:07:09.644Z,0.57
2024-02-29T07:09:37.471Z,0.32
2024-02-29T07:12:05.423Z,1.00
2024-02-29T07:14:32.966Z,0.50
2024-02-29T07:17:00.592Z,0.20
2024-02-29T07:19:28.164Z,0.50
2024-02-29T07:21:55.760Z,0.63
2024-02-29T07:24:23.325Z,0.65
2024-02-29T07:26:51.356Z,0.68
2024-02-29T07:29:19.061Z,0.40
2024-02-29T07:31:47.335Z,0.40
2024-02-29T07:34:17.449Z,1.38
2024-02-29T07:36:45.633Z,1.17
2024-02-29T07:39:14.002Z,0.73
2024-02-29T07:41:42.086Z,0.60
2024-02-29T07:44:10.035Z,0.65
2024-02-29T07:46:37.808Z,0.80
2024-02-29T07:49:05.676Z,0.98
2024-02-29T07:51:33.317Z,0.32
2024-02-29T07:54:00.928Z,0.60
2024-02-29T07:56:30.317Z,1.08
2024-02-29T07:58:58.226Z,0.75
2024-02-29T08:01:25.876Z,0.60
2024-02-29T08:03:53.536Z,0.47
2024-02-29T08:06:21.197Z,0.85
2024-02-29T08:08:49.087Z,0.93
2024-02-29T08:11:17.237Z,0.43
2024-02-29T08:13:45.663Z,1.63
2024-02-29T08:16:13.355Z,0.50
2024-02-29T08:18:41.016Z,0.82
2024-02-29T08:21:08.656Z,0.82
2024-02-29T08:23:36.982Z,0.82
2024-02-29T08:26:11.444Z,0.60
2024-02-29T08:28:39.440Z,0.55
2024-02-29T08:31:09.601Z,0.45
2024-02-29T08:33:37.291Z,0.57
2024-02-29T08:36:05.455Z,0.80
2024-02-29T08:38:33.672Z,0.77
2024-02-29T08:41:01.368Z,0.75
2024-02-29T08:43:28.992Z,0.95
2024-02-29T08:45:56.529Z,0.68
2024-02-29T08:48:24.513Z,0.50
2024-02-29T08:50:52.231Z,1.30
2024-02-29T08:53:19.778Z,0.52
2024-02-29T08:55:47.411Z,0.75
2024-02-29T08:58:15.141Z,0.40
2024-02-29T09:00:46.074Z,1.08
2024-02-29T09:03:17.030Z,1.02
2024-02-29T09:05:46.026Z,0.47
2024-02-29T09:10:41.769Z,1.00
2024-02-29T09:13:20.466Z,2.67
2024-02-29T09:15:58.022Z,0.65
2024-02-29T09:18:25.607Z,0.55
2024-02-29T09:20:53.311Z,0.70
2024-02-29T09:23:21.021Z,0.47
2024-02-29T09:25:48.663Z,0.50
2024-02-29T09:28:16.275Z,0.65
2024-02-29T09:30:44.244Z,0.35
2024-02-29T09:33:11.979Z,0.75
2024-02-29T09:35:39.611Z,0.40
2024-02-29T09:38:07.325Z,0.40
2024-02-29T09:40:42.202Z,0.50
2024-02-29T09:43:18.713Z,0.38
2024-02-29T09:45:48.047Z,0.68
2024-02-29T09:48:16.982Z,0.40
2024-02-29T09:50:44.774Z,0.55
2024-02-29T09:53:13.514Z,0.57
2024-02-29T09:55:42.749Z,0.68
2024-02-29T09:58:10.898Z,0.68
2024-02-29T10:00:38.607Z,0.30
2024-02-29T10:03:08.230Z,0.50
2024-02-29T10:05:35.897Z,0.10
2024-02-29T10:08:05.963Z,0.50
2024-02-29T10:10:34.787Z,0.50
2024-02-29T10:13:03.574Z,0.40
2024-02-29T10:15:31.539Z,0.30
2024-02-29T10:18:00.005Z,0.20
2024-02-29T10:20:28.211Z,0.85
2024-02-29T10:22:56.161Z,0.45
2024-02-29T10:25:24.094Z,0.20
2024-02-29T10:27:51.890Z,0.50
2024-02-29T10:30:20.125Z,0.13
2024-02-29T10:32:48.567Z,0.22
2024-02-29T10:35:23.523Z,0.20
2024-02-29T10:37:54.340Z,0.30
2024-02-29T10:40:23.027Z,0.35
2024-02-29T10:42:52.545Z,0.40
2024-02-29T10:45:21.987Z,0.35
2024-02-29T10:48:18.111Z,0.45
2024-02-29T10:51:17.886Z,0.45
2024-02-29T10:53:52.289Z,0.43
2024-02-29T10:56:24.515Z,1.02
2024-02-29T10:59:06.670Z,0.45
2024-02-29T11:01:38.715Z,0.20
2024-02-29T11:04:10.430Z,0.47
2024-02-29T11:06:47.886Z,0.88
2024-02-29T11:09:17.989Z,0.43
2024-02-29T11:11:47.351Z,0.40
2024-02-29T11:14:21.443Z,0.20
2024-02-29T11:16:49.115Z,0.15
2024-02-29T11:19:20.362Z,0.20
2024-02-29T11:21:48.140Z,0.30
2024-02-29T11:24:22.075Z,0.40
2024-02-29T11:26:59.860Z,0.38
2024-02-29T11:29:29.074Z,0.38
2024-02-29T11:31:58.376Z,0.55
2024-02-29T11:34:27.134Z,0.40
2024-02-29T11:36:55.069Z,0.38
2024-02-29T11:39:24.068Z,0.28
2024-02-29T11:42:03.411Z,0.73
2024-02-29T11:44:37.547Z,1.00
2024-02-29T11:47:05.553Z,0.82
2024-02-29T11:49:33.485Z,0.32
2024-02-29T11:52:01.143Z,0.40
2024-02-29T11:54:28.950Z,0.25
2024-02-29T11:56:56.869Z,0.10
2024-02-29T11:59:27.796Z,0.32
2024-02-29T12:01:55.715Z,0.30
2024-02-29T12:04:23.624Z,0.32
2024-02-29T12:06:51.580Z,0.88
2024-02-29T12:09:20.286Z,0.20
2024-02-29T12:11:48.318Z,0.40
2024-02-29T12:14:16.351Z,0.20
2024-02-29T12:16:45.396Z,0.40
2024-02-29T12:21:47.651Z,0.10
2024-02-29T12:24:17.146Z,0.00
2024-02-29T12:26:44.855Z,0.20
2024-02-29T12:29:13.471Z,0.30
2024-02-29T12:31:43.103Z,0.30
2024-02-29T12:34:10.847Z,0.30
2024-02-29T12:36:38.611Z,0.28
2024-02-29T12:39:06.349Z,0.40
2024-02-29T12:41:34.029Z,0.55
2024-02-29T12:44:06.252Z,0.20
2024-02-29T12:46:34.092Z,0.22
2024-02-29T12:49:05.022Z,0.65
2024-02-29T12:51:32.786Z,0.00
2024-02-29T12:54:00.614Z,0.20
2024-02-29T12:56:28.493Z,0.10
2024-02-29T12:58:56.173Z,0.20
2024-02-29T13:01:23.973Z,0.20
2024-02-29T13:03:53.542Z,0.30
2024-02-29T13:06:21.357Z,0.28
2024-02-29T13:08:49.932Z,0.20
2024-02-29T13:11:18.048Z,0.10
2024-02-29T13:13:45.772Z,0.30
2024-02-29T13:16:13.448Z,0.80
2024-02-29T13:18:41.248Z,0.10
2024-02-29T13:21:08.844Z,0.20
2024-02-29T13:23:36.566Z,0.57
2024-02-29T13:26:04.588Z,0.70
2024-02-29T13:28:32.916Z,0.10
2024-02-29T13:31:01.082Z,0.22
2024-02-29T13:33:29.296Z,0.32
2024-02-29T13:35:57.207Z,0.20
2024-02-29T13:38:24.973Z,0.20
2024-02-29T13:40:52.651Z,0.00
2024-02-29T13:43:20.519Z,0.20
2024-02-29T13:45:48.353Z,0.28
2024-02-29T13:48:16.257Z,0.00
2024-02-29T13:50:44.178Z,0.30
2024-02-29T13:53:12.215Z,0.03
2024-02-29T13:55:39.913Z,0.10
2024-02-29T13:58:07.781Z,0.05
2024-02-29T14:00:35.554Z,0.25
2024-02-29T14:03:03.773Z,0.38
2024-02-29T14:05:31.688Z,0.13
2024-02-29T14:07:59.773Z,0.20
2024-02-29T14:10:27.407Z,0.30
2024-02-29T14:12:55.191Z,0.32
2024-02-29T14:15:23.581Z,0.35
2024-02-29T14:17:52.036Z,0.32
2024-02-29T14:20:19.832Z,0.10
2024-02-29T14:22:47.510Z,0.45
2024-02-29T14:25:15.375Z,0.00
2024-02-29T14:27:43.432Z,0.55
2024-02-29T14:30:14.856Z,0.22
2024-02-29T14:32:43.856Z,0.30
2024-02-29T14:35:11.793Z,0.10
2024-02-29T14:37:39.449Z,0.25
2024-02-29T14:40:09.942Z,0.32
2024-02-29T14:42:37.956Z,0.10
2024-02-29T14:45:06.008Z,0.10
2024-02-29T14:47:33.835Z,0.00
2024-02-29T14:50:01.553Z,0.40
2024-02-29T14:52:29.663Z,0.10
2024-02-29T14:54:57.520Z,0.13
2024-02-29T14:57:25.222Z,0.22
2024-02-29T14:59:53.188Z,0.08
2024-02-29T15:02:20.960Z,0.65
2024-02-29T15:04:48.632Z,0.40
2024-02-29T15:07:16.521Z,0.20
2024-02-29T15:09:44.380Z,0.20
2024-02-29T15:12:12.269Z,0.40
2024-02-29T15:14:41.559Z,0.13
2024-02-29T15:17:09.214Z,0.35
2024-02-29T15:19:36.990Z,0.50
2024-02-29T15:22:04.886Z,0.30
2024-02-29T15:24:32.891Z,0.00
2024-02-29T15:27:00.757Z,0.28
2024-02-29T15:29:28.559Z,0.40
2024-02-29T15:31:56.422Z,0.63
2024-02-29T15:34:24.327Z,0.13
2024-02-29T15:36:52.195Z,0.60
2024-02-29T15:39:19.858Z,0.25
2024-02-29T15:41:47.711Z,0.10
2024-02-29T15:44:15.452Z,0.35
2024-02-29T15:46:45.809Z,0.20
2024-02-29T15:49:15.338Z,0.22
2024-02-29T15:51:43.025Z,0.10
2024-02-29T15:54:10.613Z,0.30
2024-02-29T15:56:38.449Z,0.22
2024-02-29T15:59:06.408Z,0.30
2024-02-29T16:01:34.158Z,0.40
2024-02-29T16:04:01.943Z,0.20
2024-02-29T16:06:29.702Z,0.50
2024-02-29T16:08:57.368Z,0.13
2024-02-29T16:11:25.155Z,0.20
2024-02-29T16:13:54.523Z,0.30
2024-02-29T16:16:22.267Z,0.25
2024-02-29T16:18:49.953Z,0.40
2024-02-29T16:21:17.610Z,0.63
2024-02-29T16:23:45.565Z,0.40
2024-02-29T16:26:13.229Z,0.60
2024-02-29T16:28:40.946Z,0.20
2024-02-29T16:31:08.764Z,0.20
2024-02-29T16:33:36.472Z,0.30
2024-02-29T16:36:06.088Z,0.40
2024-02-29T16:38:34.754Z,0.35
2024-02-29T16:41:02.572Z,0.10
2024-02-29T16:43:30.458Z,0.40
2024-02-29T16:45:58.181Z,0.20
2024-02-29T16:48:26.772Z,0.60
2024-02-29T16:50:57.730Z,0.30
2024-02-29T16:53:25.444Z,1.00
2024-02-29T16:55:53.248Z,0.30
2024-02-29T16:58:20.950Z,0.40
2024-02-29T17:00:48.945Z,0.57
2024-02-29T17:03:16.750Z,0.35
2024-02-29T17:05:44.591Z,0.52
2024-02-29T17:08:12.297Z,0.35
2024-02-29T17:10:40.279Z,0.30
2024-02-29T17:13:08.026Z,0.65
2024-02-29T17:15:38.245Z,0.43
2024-02-29T17:18:06.286Z,0.22
2024-02-29T17:20:34.067Z,0.43
2024-02-29T17:23:01.834Z,0.30
2024-02-29T17:25:29.696Z,0.60
2024-02-29T17:27:57.765Z,0.45
2024-02-29T17:30:25.804Z,0.68
2024-02-29T17:32:54.654Z,0.80
2024-02-29T17:35:23.713Z,0.22
2024-02-29T17:37:51.327Z,0.35
2024-02-29T17:40:19.022Z,0.52
2024-02-29T17:42:46.821Z,1.38
2024-02-29T17:45:14.437Z,0.88
2024-02-29T17:47:43.666Z,1.00
2024-02-29T17:50:17.727Z,1.02
2024-02-29T17:52:45.940Z,1.20
2024-02-29T17:55:19.302Z,1.05
2024-02-29T17:57:47.742Z,1.48
2024-02-29T18:00:16.381Z,1.17
2024-02-29T18:02:44.517Z,1.88
2024-02-29T18:05:13.093Z,1.65
2024-02-29T18:07:47.557Z,1.17
2024-02-29T18:10:23.391Z,0.60
2024-02-29T18:12:51.520Z,0.88
2024-02-29T18:15:19.383Z,1.00
2024-02-29T18:17:47.214Z,1.02
2024-02-29T18:20:21.233Z,1.70
2024-02-29T18:22:50.433Z,1.67
2024-02-29T18:25:22.052Z,3.15
2024-02-29T18:27:49.811Z,3.63
2024-02-29T18:30:17.613Z,2.55
2024-02-29T18:32:45.295Z,2.40
2024-02-29T18:35:13.209Z,3.10
2024-02-29T18:37:41.566Z,2.80
2024-02-29T18:40:14.279Z,2.78
2024-02-29T18:42:43.848Z,2.53
2024-02-29T18:45:12.125Z,2.28
2024-02-29T18:47:39.988Z,2.80
2024-02-29T18:50:08.022Z,2.47
2024-02-29T18:52:36.615Z,3.08
2024-02-29T18:55:05.569Z,2.33
2024-02-29T18:57:33.235Z,2.38
2024-02-29T19:00:00.992Z,3.83
2024-02-29T19:02:28.726Z,3.45
2024-02-29T19:04:57.023Z,3.85
2024-02-29T19:07:27.577Z,5.30
2024-02-29T19:09:56.310Z,4.47
2024-02-29T19:12:27.114Z,3.38
2024-02-29T19:14:55.264Z,3.60
2024-02-29T19:17:23.619Z,3.97
2024-02-29T19:19:51.537Z,2.20
2024-02-29T19:22:19.215Z,2.90
2024-02-29T19:24:47.035Z,1.98
2024-02-29T19:27:14.747Z,3.22
2024-02-29T19:29:42.424Z,3.03
2024-02-29T19:32:10.059Z,3.03
2024-02-29T19:34:37.796Z,3.15
2024-02-29T19:37:07.031Z,2.55
2024-02-29T19:39:36.495Z,3.25
2024-02-29T19:42:04.659Z,2.65
2024-02-29T19:44:32.604Z,2.58
2024-02-29T19:47:00.714Z,1.90
2024-02-29T19:49:28.481Z,1.83
2024-02-29T19:51:57.276Z,2.13
2024-02-29T19:54:24.961Z,2.13
2024-02-29T19:56:52.683Z,2.75
2024-02-29T19:59:20.343Z,3.63
2024-02-29T20:01:48.107Z,3.92
2024-02-29T20:04:17.240Z,3.05
2024-02-29T20:06:45.956Z,2.60
2024-02-29T20:09:13.777Z,2.42
2024-02-29T20:11:41.647Z,3.72
2024-02-29T20:14:09.337Z,2.65
2024-02-29T20:16:37.550Z,3.00
2024-02-29T20:19:05.302Z,3.85
2024-02-29T20:21:33.087Z,2.92
2024-02-29T20:24:01.497Z,2.40
2024-02-29T20:26:29.264Z,2.50
2024-02-29T20:28:56.976Z,1.42
2024-02-29T20:31:24.955Z,1.65
2024-02-29T20:33:53.096Z,1.63
2024-02-29T20:36:21.153Z,1.67
2024-02-29T20:38:48.869Z,2.15
2024-02-29T20:41:16.675Z,2.17
2024-02-29T20:43:44.687Z,2.58
2024-02-29T20:46:18.447Z,1.60
2024-02-29T20:48:46.896Z,1.48
2024-02-29T20:51:14.659Z,0.90
2024-02-29T20:53:42.489Z,0.90
2024-02-29T20:56:10.243Z,1.15
2024-02-29T20:58:37.959Z,2.35
2024-02-29T21:01:06.955Z,2.78
2024-02-29T21:03:34.984Z,1.83
2024-02-29T21:06:02.786Z,2.67
2024-02-29T21:08:33.570Z,2.00
2024-02-29T21:11:03.107Z,2.40
2024-02-29T21:13:33.397Z,2.50
2024-02-29T21:16:01.622Z,2.35
2024-02-29T21:18:29.559Z,2.00
2024-02-29T21:20:57.309Z,1.20
2024-02-29T21:23:25.060Z,2.25
2024-02-29T21:25:52.882Z,2.00
2024-02-29T21:28:21.177Z,1.70
2024-02-29T21:30:48.994Z,3.53
2024-02-29T21:33:17.773Z,1.73
2024-02-29T21:35:45.539Z,1.85
2024-02-29T21:38:13.355Z,1.83
2024-02-29T21:40:41.258Z,1.48
2024-02-29T21:43:09.253Z,1.25
2024-02-29T21:45:36.933Z,0.50
2024-02-29T21:48:05.115Z,1.00
2024-02-29T21:50:34.301Z,0.90
2024-02-29T21:53:02.267Z,0.80
2024-02-29T21:55:30.157Z,0.50
2024-02-29T21:57:57.990Z,0.60
2024-02-29T22:00:25.981Z,0.70
2024-02-29T22:02:53.699Z,0.60
2024-02-29T22:05:21.460Z,0.55
2024-02-29T22:07:49.426Z,0.90
2024-02-29T22:10:17.318Z,0.45
2024-02-29T22:12:45.286Z,0.82
2024-02-29T22:15:14.043Z,0.40
2024-02-29T22:17:55.985Z,0.60
2024-02-29T22:20:25.274Z,0.30
2024-02-29T22:22:53.402Z,0.70
2024-02-29T22:25:21.594Z,0.40
2024-02-29T22:27:49.898Z,0.32
2024-02-29T22:30:19.321Z,0.65
2024-02-29T22:35:15.328Z,0.52
2024-02-29T22:37:43.082Z,0.93
2024-02-29T22:40:11.140Z,1.23
2024-02-29T22:42:38.904Z,0.88
2024-02-29T22:45:08.854Z,0.57
2024-02-29T22:47:36.552Z,1.27
2024-02-29T22:50:06.001Z,1.05
2024-02-29T22:52:33.990Z,1.35
2024-02-29T22:55:01.988Z,0.73
2024-02-29T22:57:29.686Z,1.67
2024-02-29T22:59:57.409Z,1.15
2024-02-29T23:02:26.844Z,0.82
2024-02-29T23:04:54.488Z,0.70
2024-02-29T23:07:22.283Z,1.23
2024-02-29T23:09:50.325Z,1.77
2024-02-29T23:12:18.036Z,2.28
2024-02-29T23:14:45.886Z,2.83
2024-02-29T23:17:13.590Z,4.35
2024-02-29T23:19:41.535Z,3.92
2024-02-29T23:22:09.240Z,3.85
2024-02-29T23:24:38.822Z,4.50
2024-02-29T23:27:06.914Z,4.25
2024-02-29T23:29:34.498Z,3.60
2024-02-29T23:32:02.091Z,4.38
2024-02-29T23:34:30.569Z,4.32
2024-02-29T23:36:58.206Z,4.22
2024-02-29T23:39:25.922Z,4.18
2024-02-29T23:41:53.584Z,4.78
2024-02-29T23:44:21.204Z,4.53
2024-02-29T23:46:48.845Z,4.95
2024-02-29T23:49:17.877Z,4.25
2024-02-29T23:51:45.360Z,3.60
2024-02-29T23:54:16.347Z,4.38
2024-02-29T23:56:43.998Z,4.78
2024-02-29T23:59:11.672Z,5.35
